sensor_id;sensor_type;location;lat;lon;timestamp;pressure;altitude;pressure_sealevel;temperature;humidity
28797;BME280;24974;54.444;18.560;2023-12-07T00:01:54;101735.50;;;1.92;62.18
28797;BME280;24974;54.444;18.560;2023-12-07T00:04:25;101730.06;;;1.74;62.34
28797;BME280;24974;54.444;18.560;2023-12-07T00:06:56;101727.22;;;1.87;61.28
28797;BME280;24974;54.444;18.560;2023-12-07T00:09:26;101725.25;;;2.12;60.95
28797;BME280;24974;54.444;18.560;2023-12-07T00:11:57;101724.97;;;2.62;59.87
28797;BME280;24974;54.444;18.560;2023-12-07T00:14:28;101733.44;;;2.06;61.48
28797;BME280;24974;54.444;18.560;2023-12-07T00:16:59;101739.00;;;1.37;62.51
28797;BME280;24974;54.444;18.560;2023-12-07T00:19:30;101728.56;;;1.16;64.23
28797;BME280;24974;54.444;18.560;2023-12-07T00:22:01;101727.22;;;1.00;63.63
28797;BME280;24974;54.444;18.560;2023-12-07T00:24:31;101733.78;;;0.86;64.44
28797;BME280;24974;54.444;18.560;2023-12-07T00:27:03;101729.75;;;0.95;65.20
28797;BME280;24974;54.444;18.560;2023-12-07T00:29:37;101733.19;;;1.34;64.34
28797;BME280;24974;54.444;18.560;2023-12-07T00:32:08;101732.38;;;1.52;63.08
28797;BME280;24974;54.444;18.560;2023-12-07T00:34:39;101731.41;;;1.83;61.46
28797;BME280;24974;54.444;18.560;2023-12-07T00:37:10;101734.63;;;1.36;63.31
28797;BME280;24974;54.444;18.560;2023-12-07T00:39:41;101729.22;;;1.11;63.90
28797;BME280;24974;54.444;18.560;2023-12-07T00:42:12;101728.41;;;1.54;63.28
28797;BME280;24974;54.444;18.560;2023-12-07T00:44:43;101736.53;;;1.54;62.77
28797;BME280;24974;54.444;18.560;2023-12-07T00:47:14;101737.06;;;0.95;65.30
28797;BME280;24974;54.444;18.560;2023-12-07T00:49:45;101752.44;;;1.44;63.70
28797;BME280;24974;54.444;18.560;2023-12-07T00:52:16;101747.22;;;1.49;63.42
28797;BME280;24974;54.444;18.560;2023-12-07T00:54:47;101747.25;;;1.86;62.63
28797;BME280;24974;54.444;18.560;2023-12-07T00:57:18;101741.38;;;1.02;64.65
28797;BME280;24974;54.444;18.560;2023-12-07T00:59:49;101747.00;;;1.01;64.54
28797;BME280;24974;54.444;18.560;2023-12-07T01:02:20;101735.56;;;1.24;64.11
28797;BME280;24974;54.444;18.560;2023-12-07T01:04:51;101740.44;;;0.90;64.65
28797;BME280;24974;54.444;18.560;2023-12-07T01:07:21;101749.66;;;1.32;64.02
28797;BME280;24974;54.444;18.560;2023-12-07T01:09:52;101746.50;;;0.86;65.60
28797;BME280;24974;54.444;18.560;2023-12-07T01:12:23;101751.59;;;0.69;66.10
28797;BME280;24974;54.444;18.560;2023-12-07T01:14:54;101751.91;;;1.10;65.04
28797;BME280;24974;54.444;18.560;2023-12-07T01:17:25;101743.97;;;0.91;65.01
28797;BME280;24974;54.444;18.560;2023-12-07T01:19:55;101756.50;;;1.35;63.99
28797;BME280;24974;54.444;18.560;2023-12-07T01:22:27;101756.44;;;2.03;61.89
28797;BME280;24974;54.444;18.560;2023-12-07T01:24:58;101754.19;;;1.14;64.60
28797;BME280;24974;54.444;18.560;2023-12-07T01:27:28;101755.66;;;2.14;61.42
28797;BME280;24974;54.444;18.560;2023-12-07T01:29:59;101755.97;;;2.06;62.25
28797;BME280;24974;54.444;18.560;2023-12-07T01:32:30;101762.34;;;1.75;62.89
28797;BME280;24974;54.444;18.560;2023-12-07T01:35:01;101760.03;;;1.79;62.34
28797;BME280;24974;54.444;18.560;2023-12-07T01:37:32;101758.69;;;0.95;65.28
28797;BME280;24974;54.444;18.560;2023-12-07T01:40:04;101760.00;;;1.17;64.08
28797;BME280;24974;54.444;18.560;2023-12-07T01:42:49;101762.47;;;1.68;63.23
28797;BME280;24974;54.444;18.560;2023-12-07T01:45:20;101764.22;;;1.56;62.79
28797;BME280;24974;54.444;18.560;2023-12-07T01:47:52;101755.56;;;0.98;65.20
28797;BME280;24974;54.444;18.560;2023-12-07T01:50:24;101756.53;;;0.78;65.82
28797;BME280;24974;54.444;18.560;2023-12-07T01:53:00;101758.38;;;0.84;65.46
28797;BME280;24974;54.444;18.560;2023-12-07T01:55:32;101762.16;;;1.08;65.13
28797;BME280;24974;54.444;18.560;2023-12-07T01:58:04;101760.00;;;1.17;64.83
28797;BME280;24974;54.444;18.560;2023-12-07T02:00:35;101764.19;;;1.81;63.12
28797;BME280;24974;54.444;18.560;2023-12-07T02:03:06;101766.78;;;2.43;61.02
28797;BME280;24974;54.444;18.560;2023-12-07T02:05:37;101765.25;;;2.65;60.17
28797;BME280;24974;54.444;18.560;2023-12-07T02:08:08;101763.22;;;1.51;63.42
28797;BME280;24974;54.444;18.560;2023-12-07T02:10:39;101758.91;;;2.05;61.67
28797;BME280;24974;54.444;18.560;2023-12-07T02:13:10;101761.00;;;1.84;62.09
28797;BME280;24974;54.444;18.560;2023-12-07T02:15:41;101758.78;;;1.38;63.56
28797;BME280;24974;54.444;18.560;2023-12-07T02:18:19;101757.47;;;1.22;64.42
28797;BME280;24974;54.444;18.560;2023-12-07T02:23:37;101761.81;;;1.66;63.48
28797;BME280;24974;54.444;18.560;2023-12-07T02:26:11;101757.41;;;1.29;63.94
28797;BME280;24974;54.444;18.560;2023-12-07T02:28:44;101759.75;;;1.87;63.01
28797;BME280;24974;54.444;18.560;2023-12-07T02:31:14;101771.16;;;1.27;64.30
28797;BME280;24974;54.444;18.560;2023-12-07T02:33:45;101766.53;;;1.96;62.76
28797;BME280;24974;54.444;18.560;2023-12-07T02:36:19;101770.22;;;2.02;62.65
28797;BME280;24974;54.444;18.560;2023-12-07T02:38:53;101766.47;;;0.84;65.60
28797;BME280;24974;54.444;18.560;2023-12-07T02:41:27;101771.81;;;1.48;63.65
28797;BME280;24974;54.444;18.560;2023-12-07T02:43:59;101766.97;;;1.06;65.44
28797;BME280;24974;54.444;18.560;2023-12-07T02:46:30;101774.53;;;2.09;63.36
28797;BME280;24974;54.444;18.560;2023-12-07T02:49:00;101773.47;;;1.24;64.12
28797;BME280;24974;54.444;18.560;2023-12-07T02:51:31;101765.91;;;1.32;64.76
28797;BME280;24974;54.444;18.560;2023-12-07T02:54:02;101770.66;;;1.80;63.83
28797;BME280;24974;54.444;18.560;2023-12-07T02:56:33;101774.78;;;1.64;63.80
28797;BME280;24974;54.444;18.560;2023-12-07T02:59:04;101773.28;;;1.44;63.37
28797;BME280;24974;54.444;18.560;2023-12-07T03:01:35;101768.94;;;2.04;62.49
28797;BME280;24974;54.444;18.560;2023-12-07T03:04:06;101773.72;;;1.65;63.61
28797;BME280;24974;54.444;18.560;2023-12-07T03:06:37;101766.44;;;1.41;64.65
28797;BME280;24974;54.444;18.560;2023-12-07T03:09:08;101769.56;;;1.45;63.97
28797;BME280;24974;54.444;18.560;2023-12-07T03:11:39;101773.00;;;2.13;62.24
28797;BME280;24974;54.444;18.560;2023-12-07T03:14:10;101775.03;;;2.66;60.37
28797;BME280;24974;54.444;18.560;2023-12-07T03:16:41;101765.91;;;2.12;62.67
28797;BME280;24974;54.444;18.560;2023-12-07T03:19:12;101771.19;;;1.71;63.55
28797;BME280;24974;54.444;18.560;2023-12-07T03:21:43;101762.38;;;1.07;64.64
28797;BME280;24974;54.444;18.560;2023-12-07T03:24:13;101767.34;;;1.96;62.79
28797;BME280;24974;54.444;18.560;2023-12-07T03:26:44;101764.19;;;2.48;60.99
28797;BME280;24974;54.444;18.560;2023-12-07T03:29:15;101763.00;;;1.52;63.57
28797;BME280;24974;54.444;18.560;2023-12-07T03:31:46;101762.88;;;1.47;64.20
28797;BME280;24974;54.444;18.560;2023-12-07T03:34:17;101759.41;;;1.15;65.57
28797;BME280;24974;54.444;18.560;2023-12-07T03:36:48;101762.13;;;1.58;64.21
28797;BME280;24974;54.444;18.560;2023-12-07T03:39:19;101760.41;;;1.82;62.94
28797;BME280;24974;54.444;18.560;2023-12-07T03:41:52;101763.88;;;2.26;62.19
28797;BME280;24974;54.444;18.560;2023-12-07T03:44:22;101767.94;;;1.62;63.96
28797;BME280;24974;54.444;18.560;2023-12-07T03:46:54;101776.53;;;1.77;63.68
28797;BME280;24974;54.444;18.560;2023-12-07T03:49:25;101769.63;;;1.38;64.36
28797;BME280;24974;54.444;18.560;2023-12-07T03:51:56;101763.97;;;2.01;62.65
28797;BME280;24974;54.444;18.560;2023-12-07T03:54:27;101771.19;;;2.07;62.52
28797;BME280;24974;54.444;18.560;2023-12-07T03:56:57;101770.88;;;1.35;65.08
28797;BME280;24974;54.444;18.560;2023-12-07T03:59:28;101772.38;;;1.75;63.69
28797;BME280;24974;54.444;18.560;2023-12-07T04:01:59;101769.69;;;1.93;63.31
28797;BME280;24974;54.444;18.560;2023-12-07T04:04:30;101780.28;;;1.76;63.64
28797;BME280;24974;54.444;18.560;2023-12-07T04:07:01;101776.63;;;1.89;63.18
28797;BME280;24974;54.444;18.560;2023-12-07T04:09:32;101780.00;;;2.21;62.76
28797;BME280;24974;54.444;18.560;2023-12-07T04:12:03;101775.41;;;2.03;63.40
28797;BME280;24974;54.444;18.560;2023-12-07T04:14:34;101779.03;;;1.97;63.52
28797;BME280;24974;54.444;18.560;2023-12-07T04:17:05;101779.47;;;1.94;63.03
28797;BME280;24974;54.444;18.560;2023-12-07T04:19:36;101776.84;;;1.87;63.36
28797;BME280;24974;54.444;18.560;2023-12-07T04:22:07;101782.13;;;2.19;62.60
28797;BME280;24974;54.444;18.560;2023-12-07T04:24:37;101781.66;;;2.04;63.40
28797;BME280;24974;54.444;18.560;2023-12-07T04:27:08;101784.81;;;1.82;63.84
28797;BME280;24974;54.444;18.560;2023-12-07T04:29:39;101781.00;;;1.22;64.92
28797;BME280;24974;54.444;18.560;2023-12-07T04:32:10;101775.78;;;2.07;63.11
28797;BME280;24974;54.444;18.560;2023-12-07T04:34:41;101777.81;;;2.30;62.51
28797;BME280;24974;54.444;18.560;2023-12-07T04:37:11;101780.50;;;2.30;62.93
28797;BME280;24974;54.444;18.560;2023-12-07T04:39:42;101784.81;;;2.19;62.64
28797;BME280;24974;54.444;18.560;2023-12-07T04:42:13;101779.31;;;2.07;62.39
28797;BME280;24974;54.444;18.560;2023-12-07T04:44:44;101770.22;;;2.02;62.78
28797;BME280;24974;54.444;18.560;2023-12-07T04:47:15;101782.25;;;2.06;63.62
28797;BME280;24974;54.444;18.560;2023-12-07T04:49:46;101783.84;;;2.13;63.15
28797;BME280;24974;54.444;18.560;2023-12-07T04:52:17;101790.50;;;1.56;64.80
28797;BME280;24974;54.444;18.560;2023-12-07T04:54:47;101791.97;;;1.77;64.04
28797;BME280;24974;54.444;18.560;2023-12-07T04:57:19;101792.03;;;2.07;63.65
28797;BME280;24974;54.444;18.560;2023-12-07T04:59:50;101791.38;;;1.93;63.94
28797;BME280;24974;54.444;18.560;2023-12-07T05:02:21;101796.09;;;2.16;63.18
28797;BME280;24974;54.444;18.560;2023-12-07T05:04:52;101803.22;;;2.17;62.94
28797;BME280;24974;54.444;18.560;2023-12-07T05:07:23;101806.28;;;2.20;62.20
28797;BME280;24974;54.444;18.560;2023-12-07T05:09:54;101809.38;;;1.87;63.31
28797;BME280;24974;54.444;18.560;2023-12-07T05:12:25;101803.31;;;1.67;65.17
28797;BME280;24974;54.444;18.560;2023-12-07T05:14:55;101810.09;;;1.76;64.19
28797;BME280;24974;54.444;18.560;2023-12-07T05:17:26;101809.34;;;1.44;64.50
28797;BME280;24974;54.444;18.560;2023-12-07T05:19:57;101820.63;;;1.84;64.08
28797;BME280;24974;54.444;18.560;2023-12-07T05:22:28;101824.28;;;1.96;62.64
28797;BME280;24974;54.444;18.560;2023-12-07T05:24:59;101816.63;;;2.12;62.51
28797;BME280;24974;54.444;18.560;2023-12-07T05:27:29;101821.44;;;2.28;62.46
28797;BME280;24974;54.444;18.560;2023-12-07T05:30:00;101817.97;;;2.21;62.42
28797;BME280;24974;54.444;18.560;2023-12-07T05:32:31;101829.78;;;2.45;61.96
28797;BME280;24974;54.444;18.560;2023-12-07T05:35:02;101824.50;;;2.32;61.52
28797;BME280;24974;54.444;18.560;2023-12-07T05:37:35;101822.72;;;2.44;62.06
28797;BME280;24974;54.444;18.560;2023-12-07T05:40:06;101823.53;;;1.89;63.65
28797;BME280;24974;54.444;18.560;2023-12-07T05:42:38;101819.31;;;2.30;63.00
28797;BME280;24974;54.444;18.560;2023-12-07T05:45:09;101821.34;;;1.98;63.08
28797;BME280;24974;54.444;18.560;2023-12-07T05:47:40;101822.41;;;2.15;62.47
28797;BME280;24974;54.444;18.560;2023-12-07T05:50:11;101825.88;;;1.86;63.54
28797;BME280;24974;54.444;18.560;2023-12-07T05:52:42;101828.59;;;1.61;64.50
28797;BME280;24974;54.444;18.560;2023-12-07T05:55:13;101830.41;;;1.67;63.89
28797;BME280;24974;54.444;18.560;2023-12-07T05:57:46;101821.63;;;1.72;64.05
28797;BME280;24974;54.444;18.560;2023-12-07T06:00:17;101825.63;;;1.87;64.17
28797;BME280;24974;54.444;18.560;2023-12-07T06:02:49;101823.59;;;1.33;64.83
28797;BME280;24974;54.444;18.560;2023-12-07T06:05:20;101832.88;;;1.19;65.71
28797;BME280;24974;54.444;18.560;2023-12-07T06:07:51;101832.94;;;2.05;64.18
28797;BME280;24974;54.444;18.560;2023-12-07T06:10:24;101836.06;;;1.84;64.60
28797;BME280;24974;54.444;18.560;2023-12-07T06:12:56;101832.50;;;2.27;63.13
28797;BME280;24974;54.444;18.560;2023-12-07T06:15:29;101827.81;;;1.29;65.42
28797;BME280;24974;54.444;18.560;2023-12-07T06:17:59;101831.72;;;1.58;64.51
28797;BME280;24974;54.444;18.560;2023-12-07T06:20:30;101844.50;;;2.19;63.69
28797;BME280;24974;54.444;18.560;2023-12-07T06:23:01;101844.28;;;1.52;64.94
28797;BME280;24974;54.444;18.560;2023-12-07T06:25:35;101850.81;;;2.13;63.49
28797;BME280;24974;54.444;18.560;2023-12-07T06:28:06;101850.25;;;2.77;61.05
28797;BME280;24974;54.444;18.560;2023-12-07T06:30:38;101851.63;;;2.13;63.04
28797;BME280;24974;54.444;18.560;2023-12-07T06:33:09;101850.56;;;1.96;64.10
28797;BME280;24974;54.444;18.560;2023-12-07T06:35:40;101848.84;;;2.57;62.54
28797;BME280;24974;54.444;18.560;2023-12-07T06:38:11;101857.63;;;1.54;65.13
28797;BME280;24974;54.444;18.560;2023-12-07T06:40:41;101857.81;;;2.02;64.21
28797;BME280;24974;54.444;18.560;2023-12-07T06:43:14;101853.16;;;1.84;64.80
28797;BME280;24974;54.444;18.560;2023-12-07T06:45:44;101855.34;;;2.01;64.05
28797;BME280;24974;54.444;18.560;2023-12-07T06:48:15;101856.94;;;2.27;62.90
28797;BME280;24974;54.444;18.560;2023-12-07T06:50:46;101853.50;;;1.94;63.86
28797;BME280;24974;54.444;18.560;2023-12-07T06:53:17;101854.03;;;1.28;66.02
28797;BME280;24974;54.444;18.560;2023-12-07T06:55:49;101857.13;;;1.63;65.44
28797;BME280;24974;54.444;18.560;2023-12-07T06:58:20;101861.69;;;1.88;64.96
28797;BME280;24974;54.444;18.560;2023-12-07T07:00:50;101870.19;;;2.53;62.79
28797;BME280;24974;54.444;18.560;2023-12-07T07:03:21;101867.50;;;1.42;65.30
28797;BME280;24974;54.444;18.560;2023-12-07T07:05:53;101874.44;;;1.87;65.10
28797;BME280;24974;54.444;18.560;2023-12-07T07:08:24;101870.16;;;1.73;65.48
28797;BME280;24974;54.444;18.560;2023-12-07T07:10:55;101870.84;;;1.68;64.87
28797;BME280;24974;54.444;18.560;2023-12-07T07:13:26;101877.09;;;2.12;63.88
28797;BME280;24974;54.444;18.560;2023-12-07T07:15:57;101879.34;;;1.97;64.65
28797;BME280;24974;54.444;18.560;2023-12-07T07:18:28;101877.84;;;2.01;64.04
28797;BME280;24974;54.444;18.560;2023-12-07T07:21:00;101879.03;;;1.87;64.68
28797;BME280;24974;54.444;18.560;2023-12-07T07:23:30;101878.84;;;1.57;65.57
28797;BME280;24974;54.444;18.560;2023-12-07T07:26:01;101878.75;;;1.70;65.20
28797;BME280;24974;54.444;18.560;2023-12-07T07:28:32;101878.56;;;1.90;65.74
28797;BME280;24974;54.444;18.560;2023-12-07T07:31:06;101873.44;;;1.82;65.25
28797;BME280;24974;54.444;18.560;2023-12-07T07:33:37;101871.19;;;1.97;64.62
28797;BME280;24974;54.444;18.560;2023-12-07T07:36:08;101873.31;;;1.95;64.77
28797;BME280;24974;54.444;18.560;2023-12-07T07:38:39;101873.94;;;1.72;66.07
28797;BME280;24974;54.444;18.560;2023-12-07T07:41:10;101865.59;;;2.35;64.11
28797;BME280;24974;54.444;18.560;2023-12-07T07:43:41;101866.84;;;1.96;64.72
28797;BME280;24974;54.444;18.560;2023-12-07T07:46:14;101867.91;;;1.95;64.66
28797;BME280;24974;54.444;18.560;2023-12-07T07:48:45;101862.59;;;1.57;65.84
28797;BME280;24974;54.444;18.560;2023-12-07T07:51:16;101859.59;;;2.08;64.90
28797;BME280;24974;54.444;18.560;2023-12-07T07:53:46;101865.50;;;2.05;64.73
28797;BME280;24974;54.444;18.560;2023-12-07T07:56:17;101867.19;;;1.56;66.63
28797;BME280;24974;54.444;18.560;2023-12-07T07:58:48;101883.91;;;1.53;66.46
28797;BME280;24974;54.444;18.560;2023-12-07T08:01:19;101873.44;;;1.57;66.11
28797;BME280;24974;54.444;18.560;2023-12-07T08:03:50;101875.78;;;2.88;63.19
28797;BME280;24974;54.444;18.560;2023-12-07T08:06:21;101885.47;;;2.29;64.16
28797;BME280;24974;54.444;18.560;2023-12-07T08:08:53;101873.28;;;1.77;66.15
28797;BME280;24974;54.444;18.560;2023-12-07T08:11:24;101879.53;;;1.77;66.03
28797;BME280;24974;54.444;18.560;2023-12-07T08:13:54;101873.44;;;2.00;65.69
28797;BME280;24974;54.444;18.560;2023-12-07T08:16:25;101872.25;;;1.96;65.39
28797;BME280;24974;54.444;18.560;2023-12-07T08:18:57;101873.28;;;2.20;65.20
28797;BME280;24974;54.444;18.560;2023-12-07T08:21:29;101873.56;;;1.68;66.01
28797;BME280;24974;54.444;18.560;2023-12-07T08:24:00;101879.38;;;1.90;65.60
28797;BME280;24974;54.444;18.560;2023-12-07T08:26:31;101877.75;;;2.33;64.73
28797;BME280;24974;54.444;18.560;2023-12-07T08:29:02;101880.13;;;2.22;64.28
28797;BME280;24974;54.444;18.560;2023-12-07T08:31:33;101874.63;;;2.11;64.76
28797;BME280;24974;54.444;18.560;2023-12-07T08:34:04;101881.22;;;1.96;65.18
28797;BME280;24974;54.444;18.560;2023-12-07T08:36:34;101878.75;;;1.95;65.35
28797;BME280;24974;54.444;18.560;2023-12-07T08:39:05;101885.59;;;2.16;64.88
28797;BME280;24974;54.444;18.560;2023-12-07T08:41:40;101886.72;;;2.08;65.65
28797;BME280;24974;54.444;18.560;2023-12-07T08:44:10;101884.31;;;1.75;66.21
28797;BME280;24974;54.444;18.560;2023-12-07T08:46:41;101892.34;;;2.50;64.50
28797;BME280;24974;54.444;18.560;2023-12-07T08:49:15;101885.03;;;2.69;64.17
28797;BME280;24974;54.444;18.560;2023-12-07T08:51:46;101892.41;;;2.25;64.30
28797;BME280;24974;54.444;18.560;2023-12-07T08:54:17;101895.97;;;2.44;64.59
28797;BME280;24974;54.444;18.560;2023-12-07T08:56:48;101900.56;;;3.10;62.00
28797;BME280;24974;54.444;18.560;2023-12-07T08:59:18;101906.34;;;2.10;64.64
28797;BME280;24974;54.444;18.560;2023-12-07T09:01:49;101907.28;;;3.38;62.60
28797;BME280;24974;54.444;18.560;2023-12-07T09:04:20;101913.53;;;1.98;65.34
28797;BME280;24974;54.444;18.560;2023-12-07T09:06:51;101920.00;;;2.59;64.09
28797;BME280;24974;54.444;18.560;2023-12-07T09:09:22;101917.97;;;2.54;63.99
28797;BME280;24974;54.444;18.560;2023-12-07T09:11:54;101918.72;;;2.61;63.29
28797;BME280;24974;54.444;18.560;2023-12-07T09:14:25;101916.00;;;2.43;65.55
28797;BME280;24974;54.444;18.560;2023-12-07T09:16:57;101924.16;;;2.43;64.55
28797;BME280;24974;54.444;18.560;2023-12-07T09:19:27;101919.31;;;2.27;64.72
28797;BME280;24974;54.444;18.560;2023-12-07T09:21:58;101921.03;;;2.39;64.88
28797;BME280;24974;54.444;18.560;2023-12-07T09:24:29;101914.09;;;2.98;62.43
28797;BME280;24974;54.444;18.560;2023-12-07T09:27:00;101910.91;;;3.01;62.32
28797;BME280;24974;54.444;18.560;2023-12-07T09:29:31;101905.59;;;3.25;62.18
28797;BME280;24974;54.444;18.560;2023-12-07T09:32:01;101909.19;;;2.89;63.00
28797;BME280;24974;54.444;18.560;2023-12-07T09:34:33;101907.34;;;2.52;63.37
28797;BME280;24974;54.444;18.560;2023-12-07T09:37:08;101908.78;;;2.37;64.34
28797;BME280;24974;54.444;18.560;2023-12-07T09:39:39;101907.34;;;3.61;61.53
28797;BME280;24974;54.444;18.560;2023-12-07T09:42:10;101908.72;;;3.10;62.07
28797;BME280;24974;54.444;18.560;2023-12-07T09:44:41;101909.72;;;1.81;66.09
28797;BME280;24974;54.444;18.560;2023-12-07T09:47:12;101911.19;;;2.45;64.38
28797;BME280;24974;54.444;18.560;2023-12-07T09:49:43;101900.72;;;3.15;62.13
28797;BME280;24974;54.444;18.560;2023-12-07T09:52:15;101896.69;;;3.59;61.82
28797;BME280;24974;54.444;18.560;2023-12-07T09:54:48;101896.88;;;3.04;62.26
28797;BME280;24974;54.444;18.560;2023-12-07T09:57:20;101899.25;;;3.43;62.22
28797;BME280;24974;54.444;18.560;2023-12-07T09:59:51;101889.13;;;3.20;63.04
28797;BME280;24974;54.444;18.560;2023-12-07T10:02:23;101886.53;;;2.83;63.42
28797;BME280;24974;54.444;18.560;2023-12-07T10:05:11;101880.03;;;2.84;63.60
28797;BME280;24974;54.444;18.560;2023-12-07T10:07:49;101881.03;;;3.31;62.83
28797;BME280;24974;54.444;18.560;2023-12-07T10:10:20;101883.97;;;2.51;64.18
28797;BME280;24974;54.444;18.560;2023-12-07T10:12:53;101882.34;;;2.99;63.53
28797;BME280;24974;54.444;18.560;2023-12-07T10:15:25;101884.06;;;3.77;61.65
28797;BME280;24974;54.444;18.560;2023-12-07T10:17:57;101885.97;;;2.93;63.14
28797;BME280;24974;54.444;18.560;2023-12-07T10:20:29;101883.88;;;2.76;63.82
28797;BME280;24974;54.444;18.560;2023-12-07T10:25:40;101879.66;;;3.11;63.90
28797;BME280;24974;54.444;18.560;2023-12-07T10:28:16;101877.78;;;2.63;63.89
28797;BME280;24974;54.444;18.560;2023-12-07T10:30:48;101879.41;;;3.12;63.53
28797;BME280;24974;54.444;18.560;2023-12-07T10:33:19;101877.91;;;2.86;64.28
28797;BME280;24974;54.444;18.560;2023-12-07T10:35:50;101878.34;;;2.35;65.58
28797;BME280;24974;54.444;18.560;2023-12-07T10:38:21;101879.06;;;3.08;64.04
28797;BME280;24974;54.444;18.560;2023-12-07T10:41:05;101876.97;;;3.64;62.22
28797;BME280;24974;54.444;18.560;2023-12-07T10:43:43;101873.13;;;3.00;63.74
28797;BME280;24974;54.444;18.560;2023-12-07T10:46:20;101873.44;;;2.43;65.11
28797;BME280;24974;54.444;18.560;2023-12-07T10:48:55;101869.75;;;3.58;62.29
28797;BME280;24974;54.444;18.560;2023-12-07T10:51:37;101871.97;;;2.77;64.06
28797;BME280;24974;54.444;18.560;2023-12-07T10:54:14;101867.19;;;3.86;60.68
28797;BME280;24974;54.444;18.560;2023-12-07T10:56:46;101867.53;;;3.13;63.25
28797;BME280;24974;54.444;18.560;2023-12-07T10:59:17;101866.16;;;3.04;63.37
28797;BME280;24974;54.444;18.560;2023-12-07T11:01:48;101867.50;;;2.83;64.13
28797;BME280;24974;54.444;18.560;2023-12-07T11:04:20;101860.41;;;3.54;62.32
28797;BME280;24974;54.444;18.560;2023-12-07T11:06:54;101862.13;;;2.95;63.19
28797;BME280;24974;54.444;18.560;2023-12-07T11:09:31;101862.19;;;2.58;64.26
28797;BME280;24974;54.444;18.560;2023-12-07T11:12:18;101855.53;;;2.72;64.02
28797;BME280;24974;54.444;18.560;2023-12-07T11:14:49;101861.19;;;2.71;64.00
28797;BME280;24974;54.444;18.560;2023-12-07T11:17:21;101867.09;;;2.98;63.96
28797;BME280;24974;54.444;18.560;2023-12-07T11:19:52;101872.59;;;2.61;64.75
28797;BME280;24974;54.444;18.560;2023-12-07T11:22:23;101862.28;;;3.12;63.13
28797;BME280;24974;54.444;18.560;2023-12-07T11:24:57;101860.28;;;3.07;63.34
28797;BME280;24974;54.444;18.560;2023-12-07T11:27:32;101849.59;;;3.35;63.08
28797;BME280;24974;54.444;18.560;2023-12-07T11:30:03;101850.69;;;3.04;63.06
28797;BME280;24974;54.444;18.560;2023-12-07T11:32:34;101843.75;;;2.78;63.35
28797;BME280;24974;54.444;18.560;2023-12-07T11:35:05;101843.72;;;4.32;60.06
28797;BME280;24974;54.444;18.560;2023-12-07T11:38:00;101837.31;;;3.33;62.08
28797;BME280;24974;54.444;18.560;2023-12-07T11:40:36;101842.66;;;3.51;61.87
28797;BME280;24974;54.444;18.560;2023-12-07T11:43:07;101847.63;;;3.01;63.21
28797;BME280;24974;54.444;18.560;2023-12-07T11:45:39;101843.25;;;3.42;63.01
28797;BME280;24974;54.444;18.560;2023-12-07T11:48:14;101847.59;;;2.89;63.39
28797;BME280;24974;54.444;18.560;2023-12-07T11:50:59;101838.78;;;3.59;61.53
28797;BME280;24974;54.444;18.560;2023-12-07T11:53:36;101839.34;;;3.38;63.12
28797;BME280;24974;54.444;18.560;2023-12-07T11:56:09;101844.41;;;3.22;62.71
28797;BME280;24974;54.444;18.560;2023-12-07T11:58:40;101845.00;;;3.24;62.30
28797;BME280;24974;54.444;18.560;2023-12-07T12:01:11;101840.94;;;3.15;62.94
28797;BME280;24974;54.444;18.560;2023-12-07T12:03:42;101841.94;;;2.72;64.38
28797;BME280;24974;54.444;18.560;2023-12-07T12:06:13;101840.19;;;2.66;64.54
28797;BME280;24974;54.444;18.560;2023-12-07T12:08:44;101837.25;;;2.79;63.87
28797;BME280;24974;54.444;18.560;2023-12-07T12:11:15;101845.59;;;2.48;65.04
28797;BME280;24974;54.444;18.560;2023-12-07T12:13:46;101830.16;;;3.50;62.75
28797;BME280;24974;54.444;18.560;2023-12-07T12:16:18;101833.22;;;3.00;63.21
28797;BME280;24974;54.444;18.560;2023-12-07T12:18:49;101834.38;;;2.93;63.85
28797;BME280;24974;54.444;18.560;2023-12-07T12:21:20;101825.78;;;3.38;62.61
28797;BME280;24974;54.444;18.560;2023-12-07T12:23:51;101834.75;;;2.66;64.50
28797;BME280;24974;54.444;18.560;2023-12-07T12:26:22;101837.50;;;2.78;64.39
28797;BME280;24974;54.444;18.560;2023-12-07T12:28:53;101831.91;;;3.33;63.05
28797;BME280;24974;54.444;18.560;2023-12-07T12:31:23;101827.31;;;3.03;63.47
28797;BME280;24974;54.444;18.560;2023-12-07T12:33:54;101828.84;;;2.69;64.44
28797;BME280;24974;54.444;18.560;2023-12-07T12:36:25;101830.22;;;2.60;65.07
28797;BME280;24974;54.444;18.560;2023-12-07T12:38:59;101835.59;;;2.97;63.13
28797;BME280;24974;54.444;18.560;2023-12-07T12:41:30;101832.53;;;3.93;61.36
28797;BME280;24974;54.444;18.560;2023-12-07T12:44:02;101835.25;;;3.05;63.37
28797;BME280;24974;54.444;18.560;2023-12-07T12:46:34;101835.59;;;3.50;61.84
28797;BME280;24974;54.444;18.560;2023-12-07T12:49:05;101831.09;;;3.68;61.75
28797;BME280;24974;54.444;18.560;2023-12-07T12:51:37;101832.81;;;2.85;63.90
28797;BME280;24974;54.444;18.560;2023-12-07T12:54:08;101837.50;;;3.08;63.10
28797;BME280;24974;54.444;18.560;2023-12-07T12:56:39;101833.69;;;3.39;63.35
28797;BME280;24974;54.444;18.560;2023-12-07T12:59:10;101831.00;;;3.86;61.36
28797;BME280;24974;54.444;18.560;2023-12-07T13:01:41;101833.13;;;3.72;61.63
28797;BME280;24974;54.444;18.560;2023-12-07T13:04:12;101832.53;;;3.82;61.82
28797;BME280;24974;54.444;18.560;2023-12-07T13:06:43;101826.03;;;3.48;62.35
28797;BME280;24974;54.444;18.560;2023-12-07T13:09:14;101830.88;;;3.46;62.08
28797;BME280;24974;54.444;18.560;2023-12-07T13:11:45;101829.31;;;3.50;61.58
28797;BME280;24974;54.444;18.560;2023-12-07T13:14:17;101824.22;;;3.30;62.53
28797;BME280;24974;54.444;18.560;2023-12-07T13:16:48;101830.38;;;2.95;63.67
28797;BME280;24974;54.444;18.560;2023-12-07T13:19:19;101834.59;;;3.21;63.08